createdAt,value
2024-01-25T00:00:55.285Z,7.50
2024-01-25T00:03:22.317Z,7.50
2024-01-25T00:05:49.412Z,7.50
2024-01-25T00:08:17.015Z,7.50
2024-01-25T00:10:43.901Z,7.50
2024-01-25T00:13:11.150Z,7.50
2024-01-25T00:15:38.121Z,7.50
2024-01-25T00:18:05.195Z,7.50
2024-01-25T00:20:32.234Z,7.50
2024-01-25T00:22:59.108Z,7.60
2024-01-25T00:25:26.003Z,7.50
2024-01-25T00:27:53.946Z,7.50
2024-01-25T00:30:21.240Z,7.60
2024-01-25T00:32:49.544Z,7.60
2024-01-25T00:35:17.089Z,7.60
2024-01-25T00:37:44.424Z,7.60
2024-01-25T00:40:14.455Z,7.50
2024-01-25T00:42:46.818Z,7.50
2024-01-25T00:45:13.988Z,7.50
2024-01-25T00:47:41.231Z,7.50
2024-01-25T00:50:08.788Z,7.40
2024-01-25T00:52:36.798Z,7.50
2024-01-25T00:55:04.539Z,7.40
2024-01-25T00:57:32.017Z,7.40
2024-01-25T01:00:00.915Z,7.40
2024-01-25T01:02:31.817Z,7.40
2024-01-25T01:04:59.889Z,7.40
2024-01-25T01:07:27.382Z,7.40
2024-01-25T01:09:54.541Z,7.40
2024-01-25T01:12:21.577Z,7.40
2024-01-25T01:14:49.143Z,7.40
2024-01-25T01:17:16.356Z,7.30
2024-01-25T01:19:43.896Z,7.30
2024-01-25T01:22:11.640Z,7.30
2024-01-25T01:24:38.688Z,7.30
2024-01-25T01:27:05.697Z,7.30
2024-01-25T01:29:32.566Z,7.30
2024-01-25T01:31:59.460Z,7.30
2024-01-25T01:34:26.398Z,7.30
2024-01-25T01:36:53.355Z,7.30
2024-01-25T01:39:20.212Z,7.30
2024-01-25T01:41:50.330Z,7.30
2024-01-25T01:44:17.509Z,7.20
2024-01-25T01:46:44.691Z,7.20
2024-01-25T01:49:13.259Z,7.20
2024-01-25T01:51:46.275Z,7.20
2024-01-25T01:54:13.229Z,7.20
2024-01-25T01:56:42.903Z,7.20
2024-01-25T01:59:14.168Z,7.10
2024-01-25T02:01:41.294Z,7.10
2024-01-25T02:04:08.674Z,7.10
2024-01-25T02:06:35.795Z,7.10
2024-01-25T02:09:02.910Z,7.10
2024-01-25T02:11:30.531Z,7.10
2024-01-25T02:13:57.678Z,7.10
2024-01-25T02:16:25.148Z,7.10
2024-01-25T02:18:52.410Z,7.10
2024-01-25T02:21:19.435Z,7.10
2024-01-25T02:23:46.518Z,7.10
2024-01-25T02:26:13.630Z,7.10
2024-01-25T02:28:40.470Z,7.10
2024-01-25T02:31:07.442Z,7.10
2024-01-25T02:33:34.498Z,7.20
2024-01-25T02:36:01.520Z,7.20
2024-01-25T02:38:28.400Z,7.20
2024-01-25T02:40:55.341Z,7.20
2024-01-25T02:43:23.365Z,7.20
2024-01-25T02:45:50.543Z,7.20
2024-01-25T02:48:19.266Z,7.20
2024-01-25T02:50:46.244Z,7.20
2024-01-25T02:53:13.163Z,7.20
2024-01-25T02:55:40.070Z,7.20
2024-01-25T02:58:07.017Z,7.30
2024-01-25T03:00:34.078Z,7.30
2024-01-25T03:03:01.040Z,7.30
2024-01-25T03:05:27.977Z,7.30
2024-01-25T03:07:55.038Z,7.30
2024-01-25T03:10:22.221Z,7.30
2024-01-25T03:12:49.225Z,7.30
2024-01-25T03:15:16.377Z,7.30
2024-01-25T03:17:43.494Z,7.30
2024-01-25T03:20:11.211Z,7.30
2024-01-25T03:22:38.294Z,7.30
2024-01-25T03:25:05.686Z,7.30
2024-01-25T03:27:32.711Z,7.30
2024-01-25T03:30:00.245Z,7.30
2024-01-25T03:32:27.809Z,7.30
2024-01-25T03:34:55.466Z,7.30
2024-01-25T03:37:22.525Z,7.30
2024-01-25T03:39:51.429Z,7.30
2024-01-25T03:42:19.058Z,7.30
2024-01-25T03:44:47.220Z,7.30
2024-01-25T03:47:14.145Z,7.30
2024-01-25T03:49:41.135Z,7.30
2024-01-25T03:52:08.419Z,7.30
2024-01-25T03:54:35.829Z,7.20
2024-01-25T03:57:02.933Z,7.30
2024-01-25T03:59:29.793Z,7.30
2024-01-25T04:01:56.976Z,7.20
2024-01-25T04:04:24.285Z,7.20
2024-01-25T04:06:51.295Z,7.30
2024-01-25T04:09:18.247Z,7.30
2024-01-25T04:11:45.275Z,7.30
2024-01-25T04:14:12.381Z,7.30
2024-01-25T04:16:39.277Z,7.20
2024-01-25T04:19:06.567Z,7.30
2024-01-25T04:21:33.640Z,7.20
2024-01-25T04:24:00.534Z,7.20
2024-01-25T04:26:27.382Z,7.20
2024-01-25T04:28:54.306Z,7.20
2024-01-25T04:31:21.308Z,7.20
2024-01-25T04:33:49.108Z,7.20
2024-01-25T04:36:16.719Z,7.30
2024-01-25T04:38:43.701Z,7.30
2024-01-25T04:41:11.228Z,7.30
2024-01-25T04:43:38.290Z,7.30
2024-01-25T04:46:05.708Z,7.20
2024-01-25T04:48:33.577Z,7.20
2024-01-25T04:51:01.241Z,7.20
2024-01-25T04:53:29.152Z,7.20
2024-01-25T04:55:56.303Z,7.20
2024-01-25T04:58:23.815Z,7.20
2024-01-25T05:00:52.333Z,7.20
2024-01-25T05:03:21.194Z,7.20
2024-01-25T05:05:48.364Z,7.20
2024-01-25T05:08:15.600Z,7.20
2024-01-25T05:10:42.763Z,7.20
2024-01-25T05:13:10.512Z,7.20
2024-01-25T05:15:37.926Z,7.20
2024-01-25T05:18:05.727Z,7.20
2024-01-25T05:20:38.116Z,7.20
2024-01-25T05:23:05.644Z,7.20
2024-01-25T05:25:32.959Z,7.20
2024-01-25T05:28:00.432Z,7.20
2024-01-25T05:30:27.964Z,7.20
2024-01-25T05:32:56.000Z,7.20
2024-01-25T05:35:24.895Z,7.20
2024-01-25T05:37:52.032Z,7.20
2024-01-25T05:40:19.347Z,7.20
2024-01-25T05:42:46.629Z,7.30
2024-01-25T05:45:13.918Z,7.30
2024-01-25T05:47:40.992Z,7.30
2024-01-25T05:50:08.453Z,7.20
2024-01-25T05:52:38.224Z,7.20
2024-01-25T05:55:06.696Z,7.20
2024-01-25T05:57:35.880Z,7.20
2024-01-25T06:00:03.280Z,7.20
2024-01-25T06:02:30.184Z,7.20
2024-01-25T06:04:59.677Z,7.20
2024-01-25T06:07:27.621Z,7.10
2024-01-25T06:09:54.660Z,7.10
2024-01-25T06:12:21.798Z,7.20
2024-01-25T06:14:48.688Z,7.10
2024-01-25T06:17:15.578Z,7.10
2024-01-25T06:19:42.534Z,7.10
2024-01-25T06:22:09.640Z,7.10
2024-01-25T06:24:36.904Z,7.10
2024-01-25T06:27:03.895Z,7.10
2024-01-25T06:29:30.785Z,7.10
2024-01-25T06:31:57.746Z,7.10
2024-01-25T06:34:24.799Z,7.10
2024-01-25T06:36:51.841Z,7.10
2024-01-25T06:39:19.110Z,7.10
2024-01-25T06:41:46.025Z,7.10
2024-01-25T06:44:12.940Z,7.10
2024-01-25T06:46:39.807Z,7.10
2024-01-25T06:49:07.568Z,7.10
2024-01-25T06:51:36.483Z,7.10
2024-01-25T06:54:03.468Z,7.00
2024-01-25T06:56:30.568Z,7.00
2024-01-25T06:58:57.428Z,7.00
2024-01-25T07:01:24.949Z,7.10
2024-01-25T07:03:52.591Z,7.00
2024-01-25T07:06:20.565Z,7.00
2024-01-25T07:08:47.624Z,7.00
2024-01-25T07:11:14.534Z,7.00
2024-01-25T07:13:44.472Z,6.90
2024-01-25T07:16:11.496Z,6.90
2024-01-25T07:18:38.484Z,6.90
2024-01-25T07:21:05.634Z,6.90
2024-01-25T07:23:34.727Z,6.90
2024-01-25T07:26:01.550Z,6.90
2024-01-25T07:28:28.745Z,6.90
2024-01-25T07:30:55.713Z,6.90
2024-01-25T07:33:22.743Z,6.90
2024-01-25T07:35:49.700Z,6.90
2024-01-25T07:38:16.903Z,6.90
2024-01-25T07:40:44.026Z,6.90
2024-01-25T07:43:11.037Z,6.90
2024-01-25T07:45:39.071Z,6.90
2024-01-25T07:48:12.335Z,6.90
2024-01-25T07:50:42.472Z,6.90
2024-01-25T07:53:09.529Z,6.90
2024-01-25T07:55:36.539Z,6.90
2024-01-25T07:58:03.717Z,6.90
2024-01-25T08:00:30.673Z,6.90
2024-01-25T08:02:57.636Z,6.90
2024-01-25T08:05:33.749Z,6.90
2024-01-25T08:08:05.083Z,6.90
2024-01-25T08:10:32.045Z,7.00
2024-01-25T08:13:06.831Z,7.00
2024-01-25T08:15:35.401Z,7.00
2024-01-25T08:18:02.697Z,7.00
2024-01-25T08:20:30.094Z,7.10
2024-01-25T08:22:57.571Z,7.10
2024-01-25T08:25:25.137Z,7.10
2024-01-25T08:27:52.306Z,7.10
2024-01-25T08:30:19.276Z,7.20
2024-01-25T08:32:46.213Z,7.20
2024-01-25T08:35:13.425Z,7.20
2024-01-25T08:37:41.450Z,7.20
2024-01-25T08:40:10.857Z,7.20
2024-01-25T08:42:38.443Z,7.30
2024-01-25T08:45:08.496Z,7.30
2024-01-25T08:47:38.777Z,7.30
2024-01-25T08:50:09.934Z,7.30
2024-01-25T08:52:38.497Z,7.30
2024-01-25T08:55:05.954Z,7.30
2024-01-25T08:57:32.910Z,7.40
2024-01-25T09:00:00.076Z,7.40
2024-01-25T09:02:28.810Z,7.40
2024-01-25T09:04:55.941Z,7.40
2024-01-25T09:07:23.775Z,7.50
2024-01-25T09:09:51.028Z,7.50
2024-01-25T09:12:18.147Z,7.50
2024-01-25T09:14:44.973Z,7.50
2024-01-25T09:17:12.206Z,7.50
2024-01-25T09:19:39.383Z,7.60
2024-01-25T09:22:08.734Z,7.60
2024-01-25T09:24:37.490Z,7.60
2024-01-25T09:27:05.066Z,7.60
2024-01-25T09:29:32.003Z,7.70
2024-01-25T09:31:58.926Z,7.70
2024-01-25T09:34:26.239Z,7.70
2024-01-25T09:36:53.300Z,7.80
2024-01-25T09:39:20.952Z,7.80
2024-01-25T09:41:48.056Z,7.90
2024-01-25T09:44:15.050Z,7.90
2024-01-25T09:46:43.383Z,7.90
2024-01-25T09:49:10.638Z,8.00
2024-01-25T09:51:39.290Z,8.00
2024-01-25T09:54:06.883Z,8.10
2024-01-25T09:56:34.516Z,8.00
2024-01-25T09:59:02.106Z,8.10
2024-01-25T10:01:29.165Z,8.20
2024-01-25T10:03:59.051Z,8.20
2024-01-25T10:06:26.048Z,8.30
2024-01-25T10:08:54.285Z,8.50
2024-01-25T10:11:21.160Z,8.60
2024-01-25T10:13:51.823Z,8.70
2024-01-25T10:16:19.613Z,8.70
2024-01-25T10:18:50.933Z,8.80
2024-01-25T10:21:19.222Z,8.80
2024-01-25T10:23:47.966Z,8.80
2024-01-25T10:26:15.515Z,8.90
2024-01-25T10:28:42.952Z,9.00
2024-01-25T10:31:10.448Z,9.10
2024-01-25T10:33:39.594Z,9.10
2024-01-25T10:36:09.346Z,9.20
2024-01-25T10:38:37.850Z,9.20
2024-01-25T10:41:06.724Z,9.30
2024-01-25T10:43:34.315Z,9.30
2024-01-25T10:46:04.726Z,9.40
2024-01-25T10:48:32.705Z,9.40
2024-01-25T10:51:00.777Z,9.30
2024-01-25T10:53:30.127Z,9.30
2024-01-25T10:55:57.195Z,9.20
2024-01-25T10:58:24.332Z,9.30
2024-01-25T11:00:59.788Z,9.50
2024-01-25T11:03:28.666Z,9.30
2024-01-25T11:05:56.702Z,9.40
2024-01-25T11:08:25.192Z,9.50
2024-01-25T11:10:53.180Z,9.50
2024-01-25T11:13:27.366Z,9.60
2024-01-25T11:15:54.292Z,9.70
2024-01-25T11:18:21.289Z,9.70
2024-01-25T11:20:48.787Z,9.60
2024-01-25T11:23:17.234Z,9.50
2024-01-25T11:25:48.236Z,9.30
2024-01-25T11:28:17.482Z,9.30
2024-01-25T11:30:44.654Z,9.20
2024-01-25T11:33:13.056Z,9.10
2024-01-25T11:35:40.235Z,9.10
2024-01-25T11:38:07.209Z,9.20
2024-01-25T11:40:37.828Z,9.20
2024-01-25T11:43:12.180Z,9.20
2024-01-25T11:45:44.027Z,9.20
2024-01-25T11:48:12.337Z,9.30
2024-01-25T11:50:39.666Z,9.30
2024-01-25T11:53:06.631Z,9.30
2024-01-25T11:55:33.645Z,9.40
2024-01-25T11:58:00.750Z,9.50
2024-01-25T12:00:28.262Z,9.50
2024-01-25T12:02:55.172Z,9.70
2024-01-25T12:05:23.446Z,9.90
2024-01-25T12:07:50.733Z,10.00
2024-01-25T12:10:19.030Z,10.10
2024-01-25T12:12:46.269Z,10.10
2024-01-25T12:15:13.697Z,10.20
2024-01-25T12:17:41.584Z,10.30
2024-01-25T12:20:12.752Z,10.30
2024-01-25T12:22:40.327Z,10.30
2024-01-25T12:25:14.952Z,10.20
2024-01-25T12:27:42.550Z,10.10
2024-01-25T12:30:10.169Z,10.00
2024-01-25T12:32:37.178Z,9.90
2024-01-25T12:35:07.749Z,9.80
2024-01-25T12:37:34.957Z,9.70
2024-01-25T12:40:02.230Z,9.50
2024-01-25T12:42:29.311Z,9.40
2024-01-25T12:44:56.200Z,9.30
2024-01-25T12:47:23.398Z,9.10
2024-01-25T12:49:50.588Z,9.00
2024-01-25T12:52:17.705Z,8.90
2024-01-25T12:54:44.740Z,8.80
2024-01-25T12:57:12.351Z,8.70
2024-01-25T12:59:39.559Z,8.60
2024-01-25T13:02:07.995Z,8.50
2024-01-25T13:04:35.145Z,8.50
2024-01-25T13:07:02.151Z,8.40
2024-01-25T13:09:30.621Z,8.40
2024-01-25T13:11:57.644Z,8.50
2024-01-25T13:14:25.431Z,8.50
2024-01-25T13:16:52.243Z,8.50
2024-01-25T13:19:19.506Z,8.50
2024-01-25T13:21:53.077Z,8.50
2024-01-25T13:24:20.259Z,8.50
2024-01-25T13:26:47.125Z,8.40
2024-01-25T13:29:27.763Z,8.40
2024-01-25T13:31:54.757Z,8.40
2024-01-25T13:34:21.746Z,8.30
2024-01-25T13:36:48.759Z,8.30
2024-01-25T13:39:15.615Z,8.30
2024-01-25T13:41:42.549Z,8.40
2024-01-25T13:44:09.380Z,8.30
2024-01-25T13:46:36.357Z,8.30
2024-01-25T13:49:03.431Z,8.30
2024-01-25T13:51:30.338Z,8.20
2024-01-25T13:53:57.181Z,8.10
2024-01-25T13:56:24.030Z,8.00
2024-01-25T13:58:50.895Z,8.00
2024-01-25T14:01:17.907Z,8.00
2024-01-25T14:03:45.870Z,7.90
2024-01-25T14:06:25.030Z,7.90
2024-01-25T14:08:51.984Z,7.80
2024-01-25T14:11:18.916Z,7.80
2024-01-25T14:13:45.835Z,7.70
2024-01-25T14:16:18.003Z,7.60
2024-01-25T14:18:55.708Z,7.50
2024-01-25T14:21:23.024Z,7.40
2024-01-25T14:23:50.083Z,7.30
2024-01-25T14:26:16.992Z,7.30
2024-01-25T14:28:43.838Z,7.20
2024-01-25T14:31:10.838Z,7.10
2024-01-25T14:33:39.394Z,7.10
2024-01-25T14:36:08.307Z,7.00
2024-01-25T14:38:35.188Z,7.00
2024-01-25T14:41:02.947Z,7.00
2024-01-25T14:43:30.079Z,6.90
2024-01-25T14:45:57.048Z,6.90
2024-01-25T14:48:25.618Z,6.90
2024-01-25T14:50:52.561Z,6.90
2024-01-25T14:53:20.070Z,6.90
2024-01-25T14:55:47.744Z,6.90
2024-01-25T14:58:18.596Z,6.90
2024-01-25T15:00:45.828Z,6.90
2024-01-25T15:03:13.182Z,6.90
2024-01-25T15:05:40.120Z,6.80
2024-01-25T15:08:07.067Z,6.80
2024-01-25T15:10:34.031Z,6.80
2024-01-25T15:13:01.253Z,6.80
2024-01-25T15:15:29.501Z,6.80
2024-01-25T15:17:56.540Z,6.80
2024-01-25T15:20:23.455Z,6.80
2024-01-25T15:22:51.397Z,6.80
2024-01-25T15:25:18.629Z,6.80
2024-01-25T15:27:45.724Z,6.80
2024-01-25T15:30:13.049Z,6.80
2024-01-25T15:32:40.771Z,6.80
2024-01-25T15:35:08.321Z,6.70
2024-01-25T15:37:35.337Z,6.70
2024-01-25T15:40:09.341Z,6.70
2024-01-25T15:42:36.249Z,6.70
2024-01-25T15:45:04.028Z,6.70
2024-01-25T15:47:30.953Z,6.60
2024-01-25T15:49:57.980Z,6.50
2024-01-25T15:52:24.953Z,6.50
2024-01-25T15:54:55.427Z,6.40
2024-01-25T15:57:22.591Z,6.40
2024-01-25T15:59:50.024Z,6.30
2024-01-25T16:02:17.061Z,6.30
2024-01-25T16:04:44.061Z,6.30
2024-01-25T16:07:11.377Z,6.30
2024-01-25T16:09:42.155Z,6.20
2024-01-25T16:12:10.408Z,6.20
2024-01-25T16:14:37.536Z,6.10
2024-01-25T16:17:12.486Z,6.00
2024-01-25T16:19:39.498Z,5.90
2024-01-25T16:22:06.569Z,5.90
2024-01-25T16:24:34.194Z,5.80
2024-01-25T16:27:02.801Z,5.80
2024-01-25T16:29:29.744Z,5.70
2024-01-25T16:31:56.608Z,5.70
2024-01-25T16:34:23.739Z,5.70
2024-01-25T16:36:51.220Z,5.70
2024-01-25T16:39:18.401Z,5.60
2024-01-25T16:41:45.437Z,5.60
2024-01-25T16:44:12.469Z,5.60
2024-01-25T16:46:39.377Z,5.60
2024-01-25T16:49:06.434Z,5.60
2024-01-25T16:51:33.456Z,5.60
2024-01-25T16:54:00.423Z,5.50
2024-01-25T16:56:27.724Z,5.50
2024-01-25T16:58:54.574Z,5.50
2024-01-25T17:01:21.636Z,5.50
2024-01-25T17:03:48.665Z,5.50
2024-01-25T17:06:15.751Z,5.50
2024-01-25T17:08:42.801Z,5.50
2024-01-25T17:11:09.814Z,5.50
2024-01-25T17:13:36.795Z,5.50
2024-01-25T17:16:03.976Z,5.50
2024-01-25T17:18:30.970Z,5.50
2024-01-25T17:20:58.371Z,5.50
2024-01-25T17:23:28.730Z,5.50
2024-01-25T17:25:56.544Z,5.50
2024-01-25T17:28:23.768Z,5.60
2024-01-25T17:30:50.656Z,5.60
2024-01-25T17:33:17.897Z,5.60
2024-01-25T17:35:49.250Z,5.60
2024-01-25T17:38:19.246Z,5.60
2024-01-25T17:40:46.190Z,5.60
2024-01-25T17:43:21.903Z,5.50
2024-01-25T17:45:52.075Z,5.40
2024-01-25T17:48:19.518Z,5.30
2024-01-25T17:50:46.786Z,5.30
2024-01-25T17:53:13.676Z,5.20
2024-01-25T17:55:41.521Z,5.10
2024-01-25T17:58:08.618Z,5.00
2024-01-25T18:00:35.628Z,5.00
2024-01-25T18:03:02.656Z,5.00
2024-01-25T18:05:29.685Z,5.00
2024-01-25T18:07:56.553Z,5.00
2024-01-25T18:10:23.572Z,5.00
2024-01-25T18:12:50.644Z,5.00
2024-01-25T18:15:19.459Z,5.00
2024-01-25T18:17:46.438Z,5.00
2024-01-25T18:20:13.665Z,5.10
2024-01-25T18:22:40.576Z,5.10
2024-01-25T18:25:08.449Z,5.20
2024-01-25T18:27:35.594Z,5.20
2024-01-25T18:30:02.538Z,5.20
2024-01-25T18:32:29.537Z,5.20
2024-01-25T18:34:56.566Z,5.20
2024-01-25T18:37:23.455Z,5.20
2024-01-25T18:39:50.408Z,5.20
2024-01-25T18:42:17.425Z,5.30
2024-01-25T18:44:44.510Z,5.30
2024-01-25T18:47:11.732Z,5.30
2024-01-25T18:49:39.381Z,5.30
2024-01-25T18:52:06.840Z,5.40
2024-01-25T18:54:34.454Z,5.40
2024-01-25T18:57:02.718Z,5.40
2024-01-25T18:59:31.612Z,5.40
2024-01-25T19:01:58.936Z,5.40
2024-01-25T19:04:26.332Z,5.40
2024-01-25T19:06:57.593Z,5.40
2024-01-25T19:09:25.646Z,5.40
2024-01-25T19:11:52.806Z,5.40
2024-01-25T19:14:19.788Z,5.40
2024-01-25T19:16:49.209Z,5.40
2024-01-25T19:19:19.350Z,5.40
2024-01-25T19:21:46.878Z,5.40
2024-01-25T19:24:17.534Z,5.40
2024-01-25T19:26:46.749Z,5.40
2024-01-25T19:29:14.171Z,5.40
2024-01-25T19:31:42.004Z,5.40
2024-01-25T19:34:09.679Z,5.40
2024-01-25T19:36:37.236Z,5.40
2024-01-25T19:39:04.751Z,5.40
2024-01-25T19:41:31.712Z,5.40
2024-01-25T19:43:58.572Z,5.40
2024-01-25T19:46:25.435Z,5.40
2024-01-25T19:48:52.500Z,5.40
2024-01-25T19:51:19.511Z,5.40
2024-01-25T19:53:46.375Z,5.40
2024-01-25T19:56:16.838Z,5.40
2024-01-25T19:58:45.804Z,5.40
2024-01-25T20:01:15.677Z,5.40
2024-01-25T20:03:43.067Z,5.30
2024-01-25T20:06:16.243Z,5.30
2024-01-25T20:08:43.676Z,5.30
2024-01-25T20:11:10.557Z,5.30
2024-01-25T20:13:37.721Z,5.30
2024-01-25T20:16:05.399Z,5.30
2024-01-25T20:18:32.494Z,5.30
2024-01-25T20:21:01.190Z,5.20
2024-01-25T20:23:28.645Z,5.10
2024-01-25T20:25:56.803Z,5.00
2024-01-25T20:28:24.092Z,5.00
2024-01-25T20:30:51.155Z,4.80
2024-01-25T20:33:18.882Z,4.80
2024-01-25T20:35:46.118Z,4.60
2024-01-25T20:38:13.158Z,4.50
2024-01-25T20:40:40.036Z,4.40
2024-01-25T20:43:07.068Z,4.30
2024-01-25T20:45:35.438Z,4.20
2024-01-25T20:48:02.901Z,4.10
2024-01-25T20:50:37.347Z,4.10
2024-01-25T20:53:07.019Z,4.00
2024-01-25T20:55:34.569Z,3.90
2024-01-25T20:58:02.292Z,3.90
2024-01-25T21:00:29.358Z,3.90
2024-01-25T21:02:56.674Z,3.80
2024-01-25T21:05:23.905Z,3.80
2024-01-25T21:07:51.030Z,3.70
2024-01-25T21:10:20.128Z,3.70
2024-01-25T21:12:47.275Z,3.70
2024-01-25T21:15:14.875Z,3.70
2024-01-25T21:17:41.808Z,3.60
2024-01-25T21:20:10.235Z,3.60
2024-01-25T21:22:37.954Z,3.60
2024-01-25T21:25:08.245Z,3.60
2024-01-25T21:27:37.567Z,3.60
2024-01-25T21:30:05.091Z,3.60
2024-01-25T21:32:32.078Z,3.60
2024-01-25T21:34:59.084Z,3.60
2024-01-25T21:37:26.640Z,3.60
2024-01-25T21:39:53.513Z,3.60
2024-01-25T21:42:20.460Z,3.60
2024-01-25T21:44:47.378Z,3.60
2024-01-25T21:47:14.515Z,3.60
2024-01-25T21:49:41.737Z,3.60
2024-01-25T21:52:08.738Z,3.60
2024-01-25T21:54:35.803Z,3.60
2024-01-25T21:57:02.800Z,3.70
2024-01-25T21:59:29.865Z,3.70
2024-01-25T22:01:56.755Z,3.70
2024-01-25T22:04:24.333Z,3.80
2024-01-25T22:06:51.534Z,3.80
2024-01-25T22:09:19.767Z,3.90
2024-01-25T22:11:46.815Z,4.00
2024-01-25T22:14:13.770Z,4.10
2024-01-25T22:16:40.641Z,4.10
2024-01-25T22:19:07.680Z,4.20
2024-01-25T22:21:36.505Z,4.30
2024-01-25T22:24:04.152Z,4.30
2024-01-25T22:26:31.070Z,4.40
2024-01-25T22:28:58.002Z,4.40
2024-01-25T22:31:24.929Z,4.40
2024-01-25T22:33:51.997Z,4.50
2024-01-25T22:36:19.085Z,4.50
2024-01-25T22:38:46.001Z,4.60
2024-01-25T22:41:14.052Z,4.60
2024-01-25T22:43:40.923Z,4.60
2024-01-25T22:46:07.872Z,4.60
2024-01-25T22:48:34.990Z,4.60
2024-01-25T22:51:04.470Z,4.70
2024-01-25T22:53:31.867Z,4.70
2024-01-25T22:55:59.453Z,4.70
2024-01-25T22:58:26.870Z,4.80
2024-01-25T23:00:54.558Z,4.70
2024-01-25T23:03:22.113Z,4.80
2024-01-25T23:05:49.617Z,4.80
2024-01-25T23:08:16.610Z,4.80
2024-01-25T23:10:44.446Z,4.80
2024-01-25T23:13:11.617Z,4.80
2024-01-25T23:15:38.948Z,4.80
2024-01-25T23:18:07.056Z,4.80
2024-01-25T23:20:34.175Z,4.80
2024-01-25T23:23:01.319Z,4.80
2024-01-25T23:25:28.175Z,4.90
2024-01-25T23:27:55.170Z,4.90
2024-01-25T23:30:22.252Z,4.90
2024-01-25T23:32:49.588Z,4.90
2024-01-25T23:35:16.657Z,4.90
2024-01-25T23:37:43.524Z,4.90
2024-01-25T23:40:11.666Z,4.90
2024-01-25T23:42:38.991Z,4.90
2024-01-25T23:45:06.294Z,4.90
2024-01-25T23:47:34.085Z,5.00
2024-01-25T23:50:01.308Z,5.00
2024-01-25T23:52:28.462Z,5.00
2024-01-25T23:54:56.632Z,5.00
2024-01-25T23:57:23.741Z,5.00
2024-01-25T23:59:51.128Z,5.00
